Time;durP1;ratioP1;P1;durP2;ratioP2;P2;SDS_P1;SDS_P2;PMS_P1;PMS_P2;Temp;Humidity;BMP_temperature;BMP_pressure;BME280_temperature;BME280_humidity;BME280_pressure;Samples;Min_cycle;Max_cycle;Signal;HPM_P1;HPM_P2
2024/02/23 00:01:25;;;;;;;38.00;36.60;;;20.50;55.00;;;;;;5022789;28;20445;-67
2024/02/23 00:03:51;;;;;;;39.23;37.83;;;20.50;55.10;;;;;;5028110;28;20449;-67
2024/02/23 00:06:18;;;;;;;38.93;37.53;;;20.50;55.10;;;;;;5029746;28;20433;-67
2024/02/23 00:08:46;;;;;;;40.20;38.70;;;20.50;55.10;;;;;;5021845;28;20828;-67
2024/02/23 00:11:13;;;;;;;40.80;39.20;;;20.50;55.10;;;;;;5025663;28;20441;-67
2024/02/23 00:13:40;;;;;;;37.80;36.33;;;20.50;55.10;;;;;;5025145;28;20517;-67
2024/02/23 00:16:07;;;;;;;39.47;38.07;;;20.50;55.10;;;;;;5024654;28;20620;-67
2024/02/23 00:18:33;;;;;;;39.50;38.10;;;20.50;55.20;;;;;;5022941;28;20461;-67
2024/02/23 00:21:00;;;;;;;39.43;38.00;;;20.50;55.20;;;;;;5023519;28;20923;-67
2024/02/23 00:23:28;;;;;;;39.10;37.70;;;20.50;55.20;;;;;;5025046;28;20472;-67
2024/02/23 00:25:56;;;;;;;39.87;38.27;;;20.40;55.10;;;;;;5024639;28;20499;-67
2024/02/23 00:28:23;;;;;;;38.40;37.00;;;20.50;55.10;;;;;;5018628;28;20837;-67
2024/02/23 00:30:50;;;;;;;39.70;38.30;;;20.40;55.20;;;;;;5029297;28;20454;-65
2024/02/23 00:33:16;;;;;;;39.43;37.83;;;20.40;55.10;;;;;;5024850;28;20801;-64
2024/02/23 00:35:43;;;;;;;39.03;37.53;;;20.40;55.20;;;;;;5024149;28;20448;-68
2024/02/23 00:38:10;;;;;;;39.50;38.00;;;20.40;55.20;;;;;;5024569;28;20821;-64
2024/02/23 00:40:37;;;;;;;39.40;38.00;;;20.40;55.20;;;;;;5022235;28;20448;-65
2024/02/23 00:43:06;;;;;;;38.73;37.33;;;20.40;55.30;;;;;;5023319;28;20964;-64
2024/02/23 00:45:32;;;;;;;38.27;36.87;;;20.40;55.40;;;;;;5024348;28;20533;-64
2024/02/23 00:47:59;;;;;;;38.30;36.90;;;20.40;55.30;;;;;;5024250;28;20907;-65
2024/02/23 00:50:27;;;;;;;40.20;38.70;;;20.40;55.40;;;;;;5023658;28;20449;-65
2024/02/23 00:52:53;;;;;;;40.27;38.77;;;20.40;55.50;;;;;;5021046;28;20941;-65
2024/02/23 00:55:20;;;;;;;39.50;38.10;;;20.40;55.50;;;;;;5024229;28;20929;-65
2024/02/23 00:57:47;;;;;;;37.40;36.00;;;20.40;55.50;;;;;;5024016;28;20481;-66
2024/02/23 01:00:16;;;;;;;37.37;35.97;;;20.40;55.50;;;;;;5018151;28;20450;-65
2024/02/23 01:02:43;;;;;;;36.60;35.30;;;20.40;55.60;;;;;;5020532;28;20441;-64
2024/02/23 01:05:10;;;;;;;37.73;36.13;;;20.40;55.70;;;;;;5020740;28;20449;-64
2024/02/23 01:07:37;;;;;;;38.47;37.07;;;20.30;55.60;;;;;;5028347;28;20441;-65
2024/02/23 01:10:04;;;;;;;37.60;36.20;;;20.30;55.60;;;;;;5025360;28;20433;-66
2024/02/23 01:12:31;;;;;;;38.60;37.20;;;20.30;55.60;;;;;;5030725;28;20948;-65
2024/02/23 01:14:57;;;;;;;40.10;38.60;;;20.30;55.70;;;;;;5020637;28;20438;-66
2024/02/23 01:17:25;;;;;;;38.47;37.07;;;20.30;55.80;;;;;;5020672;28;20482;-64
2024/02/23 01:19:52;;;;;;;38.90;37.50;;;20.30;55.70;;;;;;5020313;28;20461;-65
2024/02/23 01:22:19;;;;;;;39.20;37.70;;;20.30;55.70;;;;;;5028467;28;20927;-64
2024/02/23 01:24:46;;;;;;;40.17;38.73;;;20.30;55.70;;;;;;5020489;28;20442;-66
2024/02/23 01:27:12;;;;;;;37.73;36.40;;;20.30;55.70;;;;;;5020416;28;20437;-65
2024/02/23 01:29:39;;;;;;;37.83;36.43;;;20.30;55.80;;;;;;5020614;28;20980;-65
2024/02/23 01:32:06;;;;;;;49.90;48.10;;;20.30;55.80;;;;;;5026405;28;20441;-66
2024/02/23 01:34:34;;;;;;;43.40;41.90;;;20.30;55.80;;;;;;5022057;28;20437;-64
2024/02/23 01:37:01;;;;;;;43.53;41.90;;;20.30;55.80;;;;;;5020114;28;20478;-64
2024/02/23 01:39:28;;;;;;;44.70;43.10;;;20.30;55.80;;;;;;5020351;28;20837;-65
2024/02/23 01:41:56;;;;;;;45.37;43.77;;;20.20;56.30;;;;;;5025001;28;20437;-65
2024/02/23 01:44:22;;;;;;;44.40;42.80;;;20.20;55.80;;;;;;5023288;28;20452;-65
2024/02/23 01:46:50;;;;;;;42.97;41.47;;;20.30;55.80;;;;;;5019883;28;20434;-64
2024/02/23 01:49:17;;;;;;;45.60;44.00;;;20.20;55.60;;;;;;5020190;28;20473;-66
2024/02/23 01:51:45;;;;;;;41.50;40.00;;;20.20;55.60;;;;;;5023692;28;20444;-65
2024/02/23 01:54:12;;;;;;;39.20;37.70;;;20.20;55.60;;;;;;5023389;28;20779;-65
2024/02/23 01:56:40;;;;;;;39.60;38.20;;;20.20;55.60;;;;;;5020888;28;20857;-65
2024/02/23 01:59:08;;;;;;;40.73;39.17;;;20.20;55.60;;;;;;5020061;28;20457;-64
2024/02/23 02:01:34;;;;;;;40.60;39.10;;;20.20;55.70;;;;;;5022467;28;20445;-65
2024/02/23 02:04:01;;;;;;;39.60;38.20;;;20.30;55.90;;;;;;5022680;28;20433;-65
2024/02/23 02:06:28;;;;;;;39.73;38.23;;;20.20;55.80;;;;;;5022179;28;20944;-65
2024/02/23 02:08:56;;;;;;;39.37;37.97;;;20.20;55.80;;;;;;5019963;28;20464;-64
2024/02/23 02:11:23;;;;;;;38.17;36.77;;;20.20;55.80;;;;;;5023300;28;20444;-64
2024/02/23 02:13:49;;;;;;;38.03;36.63;;;20.20;55.80;;;;;;5019731;28;20825;-65
2024/02/23 02:16:16;;;;;;;39.33;37.93;;;20.20;55.80;;;;;;5019730;28;20492;-65
2024/02/23 02:18:44;;;;;;;37.80;36.40;;;20.20;55.80;;;;;;5023417;28;21052;-65
2024/02/23 02:21:11;;;;;;;39.53;38.03;;;20.20;55.80;;;;;;5023175;28;20472;-64
2024/02/23 02:23:38;;;;;;;39.60;38.20;;;20.20;55.70;;;;;;5021164;28;20440;-65
2024/02/23 02:26:06;;;;;;;40.80;39.30;;;20.20;55.70;;;;;;5019424;28;20441;-65
2024/02/23 02:28:34;;;;;;;39.43;38.00;;;20.20;55.80;;;;;;5021764;28;20472;-65
2024/02/23 02:31:01;;;;;;;40.20;38.70;;;20.20;55.80;;;;;;5023093;28;20441;-65
2024/02/23 02:33:27;;;;;;;38.60;37.20;;;20.20;55.80;;;;;;5022533;28;20812;-65
2024/02/23 02:35:54;;;;;;;37.00;35.70;;;20.20;55.80;;;;;;5019660;28;20438;-65
2024/02/23 02:38:21;;;;;;;37.97;36.57;;;20.20;55.80;;;;;;5019923;28;20860;-65
2024/02/23 02:40:47;;;;;;;39.80;38.30;;;20.20;55.80;;;;;;5023950;28;20464;-65
2024/02/23 02:43:16;;;;;;;39.07;37.67;;;20.20;55.80;;;;;;5024390;28;20989;-65
2024/02/23 02:45:43;;;;;;;38.00;36.57;;;20.20;55.80;;;;;;5021812;28;20456;-64
2024/02/23 02:48:10;;;;;;;36.60;35.30;;;20.20;55.70;;;;;;5029710;28;20824;-64
2024/02/23 02:50:37;;;;;;;39.00;37.60;;;20.10;55.60;;;;;;5021475;28;20453;-65
2024/02/23 02:53:04;;;;;;;39.33;37.93;;;20.20;55.70;;;;;;5019729;28;20442;-64
2024/02/23 02:55:30;;;;;;;40.33;38.83;;;20.20;55.70;;;;;;5020012;28;20453;-64
2024/02/23 02:57:57;;;;;;;40.43;38.93;;;20.20;55.80;;;;;;5025038;28;20484;-64
2024/02/23 03:00:25;;;;;;;37.70;36.40;;;20.20;55.80;;;;;;5019535;28;20445;-65
2024/02/23 03:02:52;;;;;;;40.00;38.60;;;20.10;55.80;;;;;;5023246;28;20929;-65
2024/02/23 03:05:19;;;;;;;42.27;40.77;;;20.20;55.90;;;;;;5022721;28;20448;-64
2024/02/23 03:07:46;;;;;;;38.53;37.13;;;20.10;55.80;;;;;;5019902;28;20794;-65
2024/02/23 03:10:12;;;;;;;38.90;37.50;;;20.10;55.80;;;;;;5024563;28;20449;-65
2024/02/23 03:12:39;;;;;;;41.00;39.50;;;20.10;55.70;;;;;;5021329;28;20446;-65
2024/02/23 03:15:07;;;;;;;40.23;38.83;;;20.10;55.80;;;;;;5022690;28;20464;-64
2024/02/23 03:17:35;;;;;;;42.00;40.30;;;20.10;55.90;;;;;;5025166;28;20540;-65
2024/02/23 03:20:01;;;;;;;39.00;37.60;;;20.10;55.90;;;;;;5026340;28;20451;-64
2024/02/23 03:22:28;;;;;;;39.40;38.00;;;20.10;55.90;;;;;;5026238;28;20445;-65
2024/02/23 03:24:55;;;;;;;38.43;37.03;;;20.10;55.90;;;;;;5025939;28;20441;-65
2024/02/23 03:27:28;;;;;;;39.53;38.13;;;20.10;55.90;;;;;;5025792;28;20431;-65
2024/02/23 03:29:54;;;;;;;40.13;38.63;;;20.10;55.90;;;;;;5026615;28;20887;-65
2024/02/23 03:32:21;;;;;;;40.60;39.00;;;20.10;55.90;;;;;;5026022;28;20467;-65
2024/02/23 03:34:49;;;;;;;41.50;39.90;;;20.10;55.90;;;;;;5022911;28;20446;-65
2024/02/23 03:37:16;;;;;;;38.77;37.37;;;20.10;55.90;;;;;;5021760;28;20499;-64
2024/02/23 03:39:42;;;;;;;40.30;38.77;;;20.10;55.90;;;;;;5025564;28;20473;-66
2024/02/23 03:42:09;;;;;;;40.87;39.37;;;20.10;55.90;;;;;;5025716;28;20440;-65
2024/02/23 03:44:36;;;;;;;40.00;38.60;;;20.10;55.90;;;;;;5024555;28;20449;-65
2024/02/23 03:47:03;;;;;;;37.80;36.40;;;20.10;56.00;;;;;;5019857;28;20995;-65
2024/02/23 03:49:29;;;;;;;40.20;38.60;;;20.10;55.90;;;;;;5025547;28;20484;-65
2024/02/23 03:51:57;;;;;;;37.03;35.63;;;20.10;55.90;;;;;;5025679;28;20440;-64
2024/02/23 03:54:24;;;;;;;36.40;35.00;;;20.10;55.90;;;;;;5025444;28;20429;-64
2024/02/23 03:56:50;;;;;;;37.80;36.30;;;20.10;55.90;;;;;;5018431;28;20477;-64
2024/02/23 03:59:18;;;;;;;37.87;36.47;;;20.10;55.90;;;;;;5026921;28;20458;-65
2024/02/23 04:01:44;;;;;;;42.60;41.00;;;20.10;55.90;;;;;;5024127;28;20450;-64
2024/02/23 04:04:11;;;;;;;42.40;40.80;;;20.10;55.90;;;;;;5025506;28;20468;-65
2024/02/23 04:06:38;;;;;;;39.30;37.70;;;20.10;55.90;;;;;;5018326;28;20449;-65
2024/02/23 04:09:06;;;;;;;41.80;40.20;;;20.00;55.80;;;;;;5028424;28;20458;-65
2024/02/23 04:11:32;;;;;;;37.10;35.70;;;20.00;55.90;;;;;;5022119;28;20453;-64
2024/02/23 04:14:00;;;;;;;44.83;43.00;;;20.00;55.80;;;;;;5025125;28;20445;-65
2024/02/23 04:16:27;;;;;;;39.80;38.30;;;20.00;55.90;;;;;;5018820;28;20487;-65
2024/02/23 04:18:54;;;;;;;41.27;39.67;;;20.00;55.90;;;;;;5024862;28;20511;-65
2024/02/23 04:21:21;;;;;;;42.83;41.23;;;20.10;55.90;;;;;;5026277;28;20475;-64
2024/02/23 04:23:48;;;;;;;41.57;39.97;;;20.10;55.90;;;;;;5024008;28;20445;-65
2024/02/23 04:26:16;;;;;;;42.90;41.30;;;20.00;55.80;;;;;;5029255;28;20453;-65
2024/02/23 04:28:43;;;;;;;41.13;39.63;;;20.00;55.80;;;;;;5022355;28;20485;-65
2024/02/23 04:31:10;;;;;;;42.70;41.10;;;20.00;55.80;;;;;;5021666;28;20457;-65
2024/02/23 04:33:37;;;;;;;42.23;40.63;;;20.00;55.90;;;;;;5022314;28;20446;-65
2024/02/23 04:36:05;;;;;;;42.27;40.67;;;20.00;55.90;;;;;;5029458;28;20437;-65
2024/02/23 04:38:32;;;;;;;40.03;38.43;;;20.00;56.00;;;;;;5024229;28;20836;-65
2024/02/23 04:40:59;;;;;;;40.90;39.30;;;20.00;56.00;;;;;;5021406;28;20434;-65
2024/02/23 04:43:27;;;;;;;43.73;42.10;;;20.00;56.00;;;;;;5021164;28;21158;-65
2024/02/23 04:45:54;;;;;;;43.07;41.47;;;20.10;56.10;;;;;;5028958;28;20448;-65
2024/02/23 04:48:20;;;;;;;42.17;40.57;;;20.00;56.00;;;;;;5024549;28;20453;-65
2024/02/23 04:50:47;;;;;;;42.00;40.30;;;20.00;56.00;;;;;;5022206;28;20441;-65
2024/02/23 04:53:14;;;;;;;41.23;39.63;;;20.00;56.10;;;;;;5021013;28;20805;-64
2024/02/23 04:55:41;;;;;;;42.50;40.90;;;20.00;56.00;;;;;;5027362;28;20448;-65
2024/02/23 04:58:08;;;;;;;42.73;41.13;;;20.10;56.20;;;;;;5024155;28;20559;-65
2024/02/23 05:00:36;;;;;;;46.70;44.60;;;20.00;56.10;;;;;;5023666;28;20441;-65
2024/02/23 05:03:03;;;;;;;46.33;44.63;;;20.00;56.10;;;;;;5020822;28;20445;-65
2024/02/23 05:05:30;;;;;;;47.33;45.53;;;20.10;56.20;;;;;;5025909;28;20453;-65
2024/02/23 05:07:57;;;;;;;47.70;45.90;;;20.00;56.10;;;;;;5023821;28;20485;-66
2024/02/23 05:10:23;;;;;;;52.37;50.47;;;20.00;56.10;;;;;;5024161;28;20445;-66
2024/02/23 05:12:50;;;;;;;49.50;47.70;;;20.00;56.10;;;;;;5021579;28;20441;-65
2024/02/23 05:15:17;;;;;;;48.10;46.30;;;20.10;56.20;;;;;;5022665;28;21028;-66
2024/02/23 05:17:45;;;;;;;44.90;43.20;;;20.00;56.10;;;;;;5017827;28;20487;-65
2024/02/23 05:20:13;;;;;;;46.30;44.60;;;20.00;56.10;;;;;;5026726;28;20445;-65
2024/02/23 05:22:40;;;;;;;45.00;43.30;;;20.10;56.20;;;;;;5021460;28;20438;-65
2024/02/23 05:25:08;;;;;;;45.43;43.63;;;20.00;56.20;;;;;;5021096;28;20445;-66
2024/02/23 05:27:35;;;;;;;46.67;44.87;;;20.00;56.20;;;;;;5020366;28;20445;-65
2024/02/23 05:30:02;;;;;;;40.67;39.17;;;20.00;56.20;;;;;;5023770;28;20441;-64
2024/02/23 05:32:28;;;;;;;48.00;46.03;;;20.10;56.40;;;;;;5023992;28;20448;-65
2024/02/23 05:34:56;;;;;;;49.80;47.90;;;20.10;56.40;;;;;;5021578;28;20433;-66
2024/02/23 05:37:23;;;;;;;43.30;41.70;;;20.10;56.50;;;;;;5024611;28;21016;-65
2024/02/23 05:39:50;;;;;;;48.13;46.23;;;20.10;56.70;;;;;;5022345;28;20512;-65
2024/02/23 05:42:17;;;;;;;46.10;44.40;;;20.10;56.70;;;;;;5023812;28;20806;-66
2024/02/23 05:44:45;;;;;;;42.80;41.20;;;20.10;56.80;;;;;;5021525;28;20898;-66
2024/02/23 05:47:13;;;;;;;45.10;43.33;;;20.10;56.90;;;;;;5026434;28;20495;-66
2024/02/23 05:49:40;;;;;;;41.23;39.63;;;20.10;57.00;;;;;;5020880;28;20469;-66
2024/02/23 05:52:08;;;;;;;43.37;41.67;;;20.10;57.00;;;;;;5023545;28;20437;-65
2024/02/23 05:54:35;;;;;;;49.40;47.60;;;20.10;57.00;;;;;;5021765;28;20528;-65
2024/02/23 05:57:02;;;;;;;53.90;51.90;;;20.10;57.10;;;;;;5027579;28;20442;-66
2024/02/23 05:59:29;;;;;;;52.27;50.37;;;20.10;57.10;;;;;;5019995;28;20489;-64
2024/02/23 06:01:57;;;;;;;46.27;44.57;;;20.10;57.20;;;;;;5022850;28;20452;-65
2024/02/23 06:04:24;;;;;;;43.23;41.53;;;20.10;57.30;;;;;;5023017;28;20511;-65
2024/02/23 06:06:50;;;;;;;46.30;44.50;;;20.10;57.20;;;;;;5028084;28;20953;-64
2024/02/23 06:09:19;;;;;;;47.30;45.40;;;20.10;57.20;;;;;;5025589;28;20458;-64
2024/02/23 06:11:46;;;;;;;43.80;42.00;;;20.10;57.30;;;;;;5021289;28;20442;-64
2024/02/23 06:14:13;;;;;;;47.07;45.17;;;20.10;57.30;;;;;;5023161;28;20445;-65
2024/02/23 06:16:40;;;;;;;49.83;47.93;;;20.10;57.30;;;;;;5029294;28;20441;-66
2024/02/23 06:19:07;;;;;;;44.83;43.13;;;20.10;57.30;;;;;;5019803;28;20509;-64
2024/02/23 06:21:34;;;;;;;49.87;48.00;;;20.20;57.50;;;;;;5019691;28;20454;-65
2024/02/23 06:24:01;;;;;;;49.90;48.00;;;20.20;57.50;;;;;;5019756;28;20461;-67
2024/02/23 06:26:29;;;;;;;45.13;43.33;;;20.20;57.60;;;;;;5018983;28;20453;-72
2024/02/23 06:28:56;;;;;;;43.87;42.27;;;20.20;57.70;;;;;;5023620;28;20461;-74
2024/02/23 06:31:22;;;;;;;44.20;42.50;;;20.20;57.90;;;;;;5027072;28;20445;-73
2024/02/23 06:33:51;;;;;;;48.80;46.90;;;20.20;58.20;;;;;;5018277;28;20442;-71
2024/02/23 06:36:18;;;;;;;45.27;43.57;;;20.20;58.70;;;;;;5025310;28;20443;-71
2024/02/23 06:38:44;;;;;;;45.73;44.03;;;20.20;59.10;;;;;;5020563;28;20478;-71
2024/02/23 06:41:12;;;;;;;46.00;44.13;;;20.20;58.70;;;;;;5022992;28;20444;-70
2024/02/23 06:43:40;;;;;;;42.13;40.33;;;20.20;58.50;;;;;;5017645;28;20446;-70
2024/02/23 06:46:08;;;;;;;42.70;41.00;;;20.30;59.00;;;;;;5027892;28;20656;-69
2024/02/23 06:48:35;;;;;;;41.70;40.20;;;20.30;58.50;;;;;;5023252;28;20508;-71
2024/02/23 06:51:02;;;;;;;43.57;41.73;;;20.30;59.20;;;;;;5021122;28;20442;-73
2024/02/23 06:53:29;;;;;;;43.33;41.63;;;20.40;59.20;;;;;;5028057;28;20875;-68
2024/02/23 06:55:56;;;;;;;42.80;41.00;;;20.40;59.20;;;;;;5028653;28;20437;-72
2024/02/23 06:58:23;;;;;;;45.77;43.97;;;20.40;58.90;;;;;;5026425;28;20487;-71
2024/02/23 07:00:51;;;;;;;45.07;43.27;;;20.40;58.70;;;;;;5022384;28;20450;-72
2024/02/23 07:03:18;;;;;;;46.00;44.13;;;20.50;58.90;;;;;;5032963;28;20460;-68
2024/02/23 07:05:45;;;;;;;44.87;43.17;;;20.50;58.70;;;;;;5026186;28;20932;-69
2024/02/23 07:08:11;;;;;;;46.20;44.30;;;20.50;58.40;;;;;;5026077;28;20520;-68
2024/02/23 07:10:38;;;;;;;46.90;44.90;;;20.50;58.30;;;;;;5026327;28;20459;-68
2024/02/23 07:13:05;;;;;;;44.17;42.13;;;20.60;58.40;;;;;;5023664;28;20441;-68
2024/02/23 07:15:32;;;;;;;45.03;43.03;;;20.60;58.60;;;;;;5026227;28;20536;-68
2024/02/23 07:18:00;;;;;;;46.97;44.77;;;20.60;58.60;;;;;;5025792;28;20522;-68
2024/02/23 07:20:27;;;;;;;47.03;44.83;;;20.70;58.60;;;;;;5026591;28;20441;-68
2024/02/23 07:22:53;;;;;;;50.50;47.53;;;20.70;58.90;;;;;;5023970;28;20441;-68
2024/02/23 07:25:20;;;;;;;50.67;47.33;;;20.70;60.40;;;;;;5026293;28;20521;-64
2024/02/23 07:27:48;;;;;;;53.07;48.97;;;20.80;63.00;;;;;;5024616;28;20580;-69
2024/02/23 07:30:16;;;;;;;44.47;41.85;;;20.80;65.20;;;;;;5026616;28;20440;-69
2024/02/23 07:32:42;;;;;;;50.67;47.90;;;20.80;67.50;;;;;;5025410;28;20210;-69
2024/02/23 07:35:11;;;;;;;49.77;46.70;;;21.00;66.60;;;;;;5022190;28;20930;-68
2024/02/23 07:37:38;;;;;;;50.97;48.00;;;21.10;65.30;;;;;;5021850;28;20453;-68
2024/02/23 07:40:06;;;;;;;49.40;46.70;;;21.10;64.50;;;;;;5025959;28;20469;-70
2024/02/23 07:42:32;;;;;;;49.07;45.93;;;21.10;63.70;;;;;;5025785;28;20456;-70
2024/02/23 07:44:59;;;;;;;47.60;45.33;;;21.10;63.10;;;;;;5022861;28;20967;-69
2024/02/23 07:47:27;;;;;;;45.50;43.30;;;21.10;62.80;;;;;;5022152;28;20787;-69
2024/02/23 07:49:54;;;;;;;46.73;44.03;;;21.10;62.40;;;;;;5023875;28;20576;-69
2024/02/23 07:52:23;;;;;;;46.77;44.77;;;21.20;62.00;;;;;;5025421;28;20468;-69
2024/02/23 07:54:51;;;;;;;45.43;42.90;;;21.10;61.50;;;;;;5023900;28;20445;-69
2024/02/23 07:57:18;;;;;;;46.47;44.00;;;21.20;61.20;;;;;;5021815;28;20442;-69
2024/02/23 07:59:45;;;;;;;48.57;45.97;;;21.10;60.90;;;;;;5022560;28;20489;-69
2024/02/23 08:02:11;;;;;;;43.60;41.70;;;21.20;60.70;;;;;;5024125;28;20449;-69
2024/02/23 08:04:38;;;;;;;44.53;42.43;;;21.20;60.60;;;;;;5025164;28;20472;-69
2024/02/23 08:07:05;;;;;;;43.97;41.60;;;21.20;60.30;;;;;;5021624;28;20478;-69
2024/02/23 08:09:33;;;;;;;43.20;41.30;;;21.30;60.20;;;;;;5021824;28;20461;-70
2024/02/23 08:11:59;;;;;;;49.77;47.20;;;21.30;59.90;;;;;;5024250;28;20438;-69
2024/02/23 08:14:26;;;;;;;45.63;43.60;;;21.30;59.70;;;;;;5025112;28;20449;-68
2024/02/23 08:16:53;;;;;;;46.60;44.27;;;21.30;59.60;;;;;;5023084;28;20442;-69
2024/02/23 08:19:19;;;;;;;52.43;50.30;;;21.30;59.40;;;;;;5021348;28;20488;-69
2024/02/23 08:21:46;;;;;;;48.80;46.53;;;21.40;59.30;;;;;;5022178;28;20449;-68
2024/02/23 08:24:13;;;;;;;51.97;49.57;;;21.40;59.10;;;;;;5024979;28;20448;-70
2024/02/23 08:26:41;;;;;;;54.17;51.67;;;21.40;59.00;;;;;;5024667;28;20445;-70
2024/02/23 08:29:09;;;;;;;54.37;51.87;;;21.40;58.90;;;;;;5025104;28;20747;-69
2024/02/23 08:31:36;;;;;;;52.27;49.87;;;21.50;58.80;;;;;;5024845;28;20453;-70
2024/02/23 08:34:02;;;;;;;51.57;49.37;;;21.40;58.70;;;;;;5021779;28;20446;-69
2024/02/23 08:36:29;;;;;;;50.70;48.43;;;21.40;58.60;;;;;;5020994;28;20821;-69
2024/02/23 08:38:56;;;;;;;51.97;49.67;;;21.50;58.50;;;;;;5022885;28;20559;-69
2024/02/23 08:41:23;;;;;;;51.30;48.70;;;21.50;58.40;;;;;;5024627;28;20480;-69
2024/02/23 08:43:51;;;;;;;49.80;47.20;;;21.50;58.20;;;;;;5023551;28;20453;-70
2024/02/23 08:46:18;;;;;;;48.40;46.23;;;21.60;58.20;;;;;;5021008;28;20783;-69
2024/02/23 08:48:45;;;;;;;52.00;49.70;;;21.50;57.90;;;;;;5021402;28;20466;-70
2024/02/23 08:51:11;;;;;;;50.80;48.60;;;21.60;57.90;;;;;;5024384;28;20441;-69
2024/02/23 08:53:38;;;;;;;50.07;47.80;;;21.60;57.70;;;;;;5024347;28;20451;-70
2024/02/23 08:56:07;;;;;;;48.40;46.23;;;21.60;57.60;;;;;;5021081;28;20445;-69
2024/02/23 08:58:33;;;;;;;46.73;44.63;;;21.60;57.60;;;;;;5020793;28;20489;-68
2024/02/23 09:01:04;;;;;;;47.50;45.30;;;21.60;57.50;;;;;;5023128;28;20450;-69
2024/02/23 09:03:31;;;;;;;48.90;46.73;;;21.70;57.50;;;;;;5024125;28;20444;-69
2024/02/23 09:05:58;;;;;;;49.70;47.60;;;21.70;57.40;;;;;;5021707;28;20481;-69
2024/02/23 09:08:24;;;;;;;53.10;50.70;;;21.70;57.30;;;;;;5020782;28;20465;-69
2024/02/23 09:10:51;;;;;;;51.10;48.90;;;21.70;57.20;;;;;;5021661;28;20443;-69
2024/02/23 09:13:18;;;;;;;49.27;46.97;;;21.80;57.20;;;;;;5022304;28;20446;-69
2024/02/23 09:15:44;;;;;;;51.00;48.70;;;21.80;57.00;;;;;;5020433;28;20446;-69
2024/02/23 09:18:13;;;;;;;49.07;46.67;;;21.80;56.90;;;;;;5023377;28;20457;-71
2024/02/23 09:20:39;;;;;;;50.00;47.80;;;21.70;57.00;;;;;;5023706;28;20498;-71
2024/02/23 09:23:06;;;;;;;51.70;49.20;;;21.70;57.90;;;;;;5018365;28;20450;-76
2024/02/23 09:25:33;;;;;;;51.20;49.10;;;21.70;58.00;;;;;;5027085;28;20816;-75
2024/02/23 09:28:00;;;;;;;47.47;45.30;;;21.70;57.90;;;;;;5021459;28;20468;-75
2024/02/23 09:30:27;;;;;;;49.60;47.40;;;21.70;57.90;;;;;;5020961;28;20434;-76
2024/02/23 09:32:54;;;;;;;46.43;44.33;;;21.70;58.00;;;;;;5022210;28;21633;-72
2024/02/23 09:35:22;;;;;;;46.80;44.50;;;21.70;58.00;;;;;;5024021;28;20811;-71
2024/02/23 09:37:49;;;;;;;47.97;45.97;;;21.70;58.00;;;;;;5025504;28;20449;-71
2024/02/23 09:40:16;;;;;;;43.00;41.00;;;21.70;58.20;;;;;;5018840;28;20476;-71
2024/02/23 09:42:43;;;;;;;43.43;41.53;;;21.70;58.00;;;;;;5023863;28;20441;-71
2024/02/23 09:45:13;;;;;;;46.80;44.40;;;21.60;57.80;;;;;;5028289;28;20449;-70
2024/02/23 09:47:41;;;;;;;41.03;39.33;;;21.60;57.80;;;;;;5019789;28;20516;-72
2024/02/23 09:50:10;;;;;;;42.30;40.50;;;21.60;57.90;;;;;;5021440;28;20933;-75
2024/02/23 09:52:38;;;;;;;42.17;40.23;;;21.60;58.00;;;;;;5026920;28;20450;-71
2024/02/23 09:55:06;;;;;;;44.50;42.60;;;21.60;57.90;;;;;;5023414;28;20452;-71
2024/02/23 09:57:32;;;;;;;42.93;41.17;;;21.60;57.90;;;;;;5023082;28;20948;-70
2024/02/23 09:59:59;;;;;;;41.90;40.00;;;21.60;58.00;;;;;;5021945;28;20492;-71
2024/02/23 10:02:26;;;;;;;43.40;41.40;;;21.60;58.00;;;;;;5026313;28;20809;-68
2024/02/23 10:04:56;;;;;;;43.40;41.60;;;21.70;58.20;;;;;;5033882;28;20452;-68
2024/02/23 10:07:25;;;;;;;41.27;39.60;;;21.70;58.00;;;;;;5025759;28;20441;-72
2024/02/23 10:09:55;;;;;;;54.00;51.70;;;21.70;57.90;;;;;;5023192;28;20457;-72
2024/02/23 10:12:22;;;;;;;44.80;42.80;;;21.60;55.50;;;;;;5024043;28;20499;-69
2024/02/23 10:14:49;;;;;;;50.53;48.40;;;21.70;56.40;;;;;;5022843;28;20564;-72
2024/02/23 10:17:15;;;;;;;49.93;47.70;;;21.80;57.30;;;;;;5016284;28;20929;-70
2024/02/23 10:19:42;;;;;;;49.23;47.13;;;21.80;57.20;;;;;;5019687;28;20490;-71
2024/02/23 10:22:09;;;;;;;46.10;44.20;;;21.80;57.30;;;;;;5022851;28;20446;-69
2024/02/23 10:24:37;;;;;;;46.80;44.90;;;21.80;59.10;;;;;;5023001;28;20441;-70
2024/02/23 10:27:06;;;;;;;46.43;44.53;;;21.80;57.90;;;;;;5018215;28;20450;-69
2024/02/23 10:29:32;;;;;;;42.45;40.40;;;21.80;57.30;;;;;;5028947;28;20438;-71
2024/02/23 10:32:00;;;;;;;47.13;45.03;;;21.80;57.10;;;;;;5025137;28;20207;-66
2024/02/23 10:34:30;;;;;;;48.13;46.20;;;21.90;57.00;;;;;;5027043;28;20445;-73
2024/02/23 10:36:57;;;;;;;46.63;44.80;;;21.90;57.30;;;;;;5025515;28;20445;-73
2024/02/23 10:39:26;;;;;;;38.43;36.33;;;21.90;57.00;;;;;;5020650;28;20484;-68
2024/02/23 10:41:58;;;;;;;34.73;33.13;;;21.90;57.70;;;;;;5026122;28;20860;-68
2024/02/23 10:44:28;;;;;;;41.60;39.73;;;21.90;57.40;;;;;;5030129;28;20504;-67
2024/02/23 10:46:56;;;;;;;38.50;37.00;;;21.90;57.30;;;;;;5024120;28;20446;-67
2024/02/23 10:49:26;;;;;;;43.70;41.70;;;21.90;57.30;;;;;;5027019;28;20826;-67
2024/02/23 10:51:53;;;;;;;45.30;42.30;;;21.80;57.00;;;;;;5026220;28;20444;-68
2024/02/23 10:54:21;;;;;;;46.47;43.25;;;21.80;57.80;;;;;;5029700;28;20798;-70
2024/02/23 10:56:50;;;;;;;48.87;44.93;;;21.80;57.60;;;;;;5023079;28;20238;-72
2024/02/23 10:59:18;;;;;;;52.83;49.07;;;21.90;58.10;;;;;;5026975;28;20488;-71
2024/02/23 11:01:49;;;;;;;47.15;43.95;;;21.90;58.60;;;;;;5026100;28;20437;-70
2024/02/23 11:04:16;;;;;;;48.37;45.03;;;21.90;58.10;;;;;;5023558;28;20230;-70
2024/02/23 11:06:43;;;;;;;47.53;44.23;;;22.00;58.90;;;;;;5026150;28;20452;-70
2024/02/23 11:09:13;;;;;;;46.97;43.83;;;21.90;58.80;;;;;;5023433;28;20462;-70
2024/02/23 11:11:40;;;;;;;48.57;45.60;;;21.90;58.90;;;;;;5023024;28;20454;-69
2024/02/23 11:14:09;;;;;;;49.73;47.03;;;21.90;59.80;;;;;;5025135;28;20445;-69
2024/02/23 11:16:40;;;;;;;48.77;45.47;;;21.90;59.20;;;;;;5019436;28;20477;-69
2024/02/23 11:19:11;;;;;;;47.30;44.53;;;21.90;59.10;;;;;;5030976;28;20485;-69
2024/02/23 11:21:38;;;;;;;48.27;45.30;;;21.90;59.40;;;;;;5022740;28;20453;-68
2024/02/23 11:24:06;;;;;;;49.77;47.00;;;21.80;59.30;;;;;;5023593;28;20456;-68
2024/02/23 11:26:33;;;;;;;46.80;43.60;;;21.90;59.30;;;;;;5028195;28;20495;-68
2024/02/23 11:29:00;;;;;;;47.30;44.57;;;21.90;59.50;;;;;;5024690;28;20526;-68
2024/02/23 11:31:30;;;;;;;47.17;43.67;;;21.90;59.40;;;;;;5022573;28;21108;-68
2024/02/23 11:33:58;;;;;;;46.30;43.90;;;21.80;59.30;;;;;;5023323;28;20442;-68
2024/02/23 11:36:29;;;;;;;45.30;42.50;;;21.90;59.40;;;;;;5027979;28;20461;-68
2024/02/23 11:38:58;;;;;;;44.30;41.63;;;21.90;59.30;;;;;;5024710;28;20465;-68
2024/02/23 11:41:26;;;;;;;49.10;46.30;;;21.90;59.10;;;;;;5022322;28;20438;-67
2024/02/23 11:43:54;;;;;;;46.27;43.60;;;21.90;59.50;;;;;;5022671;28;20810;-67
2024/02/23 11:46:21;;;;;;;46.90;44.37;;;21.90;59.30;;;;;;5031255;28;20433;-68
2024/02/23 11:48:53;;;;;;;44.27;41.77;;;21.90;59.20;;;;;;5038375;28;20461;-68
2024/02/23 11:51:20;;;;;;;42.27;39.97;;;21.90;58.90;;;;;;5028948;28;20951;-69
2024/02/23 11:53:48;;;;;;;42.67;40.17;;;21.90;59.10;;;;;;5026116;28;20452;-73
2024/02/23 11:56:15;;;;;;;43.43;41.30;;;21.90;59.20;;;;;;5021928;28;20453;-67
2024/02/23 11:58:42;;;;;;;44.37;42.00;;;21.90;58.70;;;;;;5023459;28;20477;-66
2024/02/23 12:01:09;;;;;;;44.40;42.03;;;21.90;58.60;;;;;;5030015;28;20477;-66
2024/02/23 12:03:37;;;;;;;43.67;41.20;;;21.90;58.60;;;;;;5022054;28;20453;-66
2024/02/23 12:06:05;;;;;;;42.30;40.20;;;21.90;58.60;;;;;;5023189;28;20505;-66
2024/02/23 12:08:37;;;;;;;44.77;42.57;;;22.00;58.50;;;;;;5025126;28;20491;-66
2024/02/23 12:11:07;;;;;;;42.17;39.93;;;22.00;58.20;;;;;;5023671;28;20449;-66
2024/02/23 12:13:35;;;;;;;40.93;39.23;;;22.00;57.90;;;;;;5021607;28;20935;-66
2024/02/23 12:16:02;;;;;;;43.60;41.60;;;22.00;57.70;;;;;;5022537;28;20499;-66
2024/02/23 12:18:30;;;;;;;43.77;41.80;;;22.00;57.50;;;;;;5024992;28;20464;-66
2024/02/23 12:21:00;;;;;;;42.27;40.27;;;22.00;57.30;;;;;;5024345;28;20835;-66
2024/02/23 12:23:27;;;;;;;43.30;41.20;;;22.10;57.10;;;;;;5021616;28;20450;-66
2024/02/23 12:25:55;;;;;;;40.07;38.17;;;22.10;56.90;;;;;;5021121;28;20466;-67
2024/02/23 12:28:23;;;;;;;43.10;41.00;;;22.10;57.30;;;;;;5024797;28;20887;-66